sensor_id;sensor_type;location;lat;lon;timestamp;P1;durP1;ratioP1;P2;durP2;ratioP2
28170;SDS011;15458;53.346;-1.688;2023-07-13T00:00:10;9.38;;;2.95;;
28170;SDS011;15458;53.346;-1.688;2023-07-13T00:02:40;9.80;;;2.25;;
28170;SDS011;15458;53.346;-1.688;2023-07-13T00:05:06;5.07;;;2.80;;
28170;SDS011;15458;53.346;-1.688;2023-07-13T00:07:32;12.73;;;2.72;;
28170;SDS011;15458;53.346;-1.688;2023-07-13T00:09:57;12.38;;;2.67;;
28170;SDS011;15458;53.346;-1.688;2023-07-13T00:15:00;6.82;;;2.78;;
28170;SDS011;15458;53.346;-1.688;2023-07-13T00:17:29;5.72;;;2.30;;
28170;SDS011;15458;53.346;-1.688;2023-07-13T00:19:55;9.73;;;2.58;;
28170;SDS011;15458;53.346;-1.688;2023-07-13T00:22:22;9.50;;;3.17;;
28170;SDS011;15458;53.346;-1.688;2023-07-13T00:24:49;9.63;;;2.42;;
28170;SDS011;15458;53.346;-1.688;2023-07-13T00:27:16;7.40;;;2.45;;
28170;SDS011;15458;53.346;-1.688;2023-07-13T00:29:43;9.32;;;2.53;;
28170;SDS011;15458;53.346;-1.688;2023-07-13T00:32:09;16.83;;;2.95;;
28170;SDS011;15458;53.346;-1.688;2023-07-13T00:34:36;9.85;;;2.72;;
28170;SDS011;15458;53.346;-1.688;2023-07-13T00:37:02;10.52;;;2.90;;
28170;SDS011;15458;53.346;-1.688;2023-07-13T00:39:28;7.53;;;2.70;;
28170;SDS011;15458;53.346;-1.688;2023-07-13T00:41:54;8.93;;;3.08;;
28170;SDS011;15458;53.346;-1.688;2023-07-13T00:44:19;9.80;;;2.85;;
28170;SDS011;15458;53.346;-1.688;2023-07-13T00:46:48;24.95;;;3.50;;
28170;SDS011;15458;53.346;-1.688;2023-07-13T00:49:15;13.90;;;3.17;;
28170;SDS011;15458;53.346;-1.688;2023-07-13T00:51:48;13.90;;;3.60;;
28170;SDS011;15458;53.346;-1.688;2023-07-13T00:54:19;13.55;;;4.05;;
28170;SDS011;15458;53.346;-1.688;2023-07-13T00:56:49;12.93;;;3.38;;
28170;SDS011;15458;53.346;-1.688;2023-07-13T00:59:17;11.55;;;3.10;;
28170;SDS011;15458;53.346;-1.688;2023-07-13T01:01:45;15.20;;;3.25;;
28170;SDS011;15458;53.346;-1.688;2023-07-13T01:04:11;8.35;;;2.80;;
28170;SDS011;15458;53.346;-1.688;2023-07-13T01:06:38;10.50;;;2.65;;
28170;SDS011;15458;53.346;-1.688;2023-07-13T01:09:05;9.95;;;3.53;;
28170;SDS011;15458;53.346;-1.688;2023-07-13T01:11:32;7.78;;;1.80;;
28170;SDS011;15458;53.346;-1.688;2023-07-13T01:13:59;6.45;;;2.83;;
28170;SDS011;15458;53.346;-1.688;2023-07-13T01:16:35;6.22;;;2.35;;
28170;SDS011;15458;53.346;-1.688;2023-07-13T01:19:03;5.20;;;2.13;;
28170;SDS011;15458;53.346;-1.688;2023-07-13T01:22:01;6.00;;;2.33;;
28170;SDS011;15458;53.346;-1.688;2023-07-13T01:24:27;5.65;;;2.65;;
28170;SDS011;15458;53.346;-1.688;2023-07-13T01:26:54;10.73;;;3.55;;
28170;SDS011;15458;53.346;-1.688;2023-07-13T01:29:20;7.35;;;3.13;;
28170;SDS011;15458;53.346;-1.688;2023-07-13T01:31:46;7.80;;;3.38;;
28170;SDS011;15458;53.346;-1.688;2023-07-13T01:34:12;10.50;;;3.35;;
28170;SDS011;15458;53.346;-1.688;2023-07-13T01:36:38;12.18;;;3.20;;
28170;SDS011;15458;53.346;-1.688;2023-07-13T01:39:04;10.32;;;3.97;;
28170;SDS011;15458;53.346;-1.688;2023-07-13T01:41:29;13.80;;;4.07;;
28170;SDS011;15458;53.346;-1.688;2023-07-13T01:43:55;9.60;;;3.78;;
28170;SDS011;15458;53.346;-1.688;2023-07-13T01:46:21;14.88;;;4.63;;
28170;SDS011;15458;53.346;-1.688;2023-07-13T01:48:47;8.70;;;4.32;;
28170;SDS011;15458;53.346;-1.688;2023-07-13T01:51:12;10.73;;;4.55;;
28170;SDS011;15458;53.346;-1.688;2023-07-13T01:53:38;10.38;;;4.30;;
28170;SDS011;15458;53.346;-1.688;2023-07-13T01:56:04;12.77;;;4.10;;
28170;SDS011;15458;53.346;-1.688;2023-07-13T01:58:30;9.48;;;4.53;;
28170;SDS011;15458;53.346;-1.688;2023-07-13T02:00:55;10.30;;;3.95;;
28170;SDS011;15458;53.346;-1.688;2023-07-13T02:03:21;11.65;;;4.18;;
28170;SDS011;15458;53.346;-1.688;2023-07-13T02:05:47;14.15;;;5.13;;
28170;SDS011;15458;53.346;-1.688;2023-07-13T02:08:12;16.98;;;5.10;;
28170;SDS011;15458;53.346;-1.688;2023-07-13T02:10:38;16.45;;;4.57;;
28170;SDS011;15458;53.346;-1.688;2023-07-13T02:13:05;12.52;;;4.68;;
28170;SDS011;15458;53.346;-1.688;2023-07-13T02:15:31;12.75;;;5.28;;
28170;SDS011;15458;53.346;-1.688;2023-07-13T02:17:57;12.18;;;4.20;;
28170;SDS011;15458;53.346;-1.688;2023-07-13T02:20:23;11.68;;;4.78;;
28170;SDS011;15458;53.346;-1.688;2023-07-13T02:22:49;17.27;;;4.75;;
28170;SDS011;15458;53.346;-1.688;2023-07-13T02:25:15;12.02;;;4.82;;
28170;SDS011;15458;53.346;-1.688;2023-07-13T02:27:41;9.10;;;4.90;;
28170;SDS011;15458;53.346;-1.688;2023-07-13T02:30:07;17.75;;;5.78;;
28170;SDS011;15458;53.346;-1.688;2023-07-13T02:32:33;9.15;;;4.35;;
28170;SDS011;15458;53.346;-1.688;2023-07-13T02:35:00;12.38;;;5.10;;
28170;SDS011;15458;53.346;-1.688;2023-07-13T02:37:26;12.77;;;4.43;;
28170;SDS011;15458;53.346;-1.688;2023-07-13T02:39:51;8.45;;;4.57;;
28170;SDS011;15458;53.346;-1.688;2023-07-13T02:42:17;12.35;;;4.60;;
28170;SDS011;15458;53.346;-1.688;2023-07-13T02:44:43;14.40;;;5.00;;
28170;SDS011;15458;53.346;-1.688;2023-07-13T02:47:08;9.98;;;4.07;;
28170;SDS011;15458;53.346;-1.688;2023-07-13T02:49:34;9.35;;;4.55;;
28170;SDS011;15458;53.346;-1.688;2023-07-13T02:52:01;12.15;;;4.18;;
28170;SDS011;15458;53.346;-1.688;2023-07-13T02:54:27;10.85;;;4.50;;
28170;SDS011;15458;53.346;-1.688;2023-07-13T02:56:53;13.63;;;5.32;;
28170;SDS011;15458;53.346;-1.688;2023-07-13T02:59:18;8.77;;;4.65;;
28170;SDS011;15458;53.346;-1.688;2023-07-13T03:01:44;13.38;;;5.55;;
28170;SDS011;15458;53.346;-1.688;2023-07-13T03:04:09;12.13;;;4.47;;
28170;SDS011;15458;53.346;-1.688;2023-07-13T03:06:35;15.02;;;5.05;;
28170;SDS011;15458;53.346;-1.688;2023-07-13T03:09:01;9.20;;;4.78;;
28170;SDS011;15458;53.346;-1.688;2023-07-13T03:11:27;13.50;;;4.53;;
28170;SDS011;15458;53.346;-1.688;2023-07-13T03:13:52;6.20;;;3.75;;
28170;SDS011;15458;53.346;-1.688;2023-07-13T03:16:18;9.88;;;3.25;;
28170;SDS011;15458;53.346;-1.688;2023-07-13T03:18:45;13.20;;;3.75;;
28170;SDS011;15458;53.346;-1.688;2023-07-13T03:21:11;13.10;;;4.88;;
28170;SDS011;15458;53.346;-1.688;2023-07-13T03:23:37;10.38;;;4.63;;
28170;SDS011;15458;53.346;-1.688;2023-07-13T03:28:33;9.45;;;3.97;;
28170;SDS011;15458;53.346;-1.688;2023-07-13T03:31:07;8.75;;;4.15;;
28170;SDS011;15458;53.346;-1.688;2023-07-13T03:33:43;14.23;;;5.22;;
28170;SDS011;15458;53.346;-1.688;2023-07-13T03:36:12;14.90;;;4.90;;
28170;SDS011;15458;53.346;-1.688;2023-07-13T03:38:41;10.10;;;4.80;;
28170;SDS011;15458;53.346;-1.688;2023-07-13T03:41:06;12.57;;;5.53;;
28170;SDS011;15458;53.346;-1.688;2023-07-13T03:43:32;12.75;;;5.32;;
28170;SDS011;15458;53.346;-1.688;2023-07-13T03:45:58;11.13;;;5.25;;
28170;SDS011;15458;53.346;-1.688;2023-07-13T03:48:23;11.73;;;5.60;;
28170;SDS011;15458;53.346;-1.688;2023-07-13T03:50:49;8.25;;;4.55;;
28170;SDS011;15458;53.346;-1.688;2023-07-13T03:53:15;10.93;;;5.15;;
28170;SDS011;15458;53.346;-1.688;2023-07-13T03:55:41;9.32;;;5.93;;
28170;SDS011;15458;53.346;-1.688;2023-07-13T04:00:56;14.32;;;6.13;;
28170;SDS011;15458;53.346;-1.688;2023-07-13T04:03:22;9.80;;;6.90;;
28170;SDS011;15458;53.346;-1.688;2023-07-13T04:05:49;11.55;;;6.57;;
28170;SDS011;15458;53.346;-1.688;2023-07-13T04:08:14;14.10;;;7.00;;
28170;SDS011;15458;53.346;-1.688;2023-07-13T04:10:40;13.30;;;7.70;;
28170;SDS011;15458;53.346;-1.688;2023-07-13T04:13:06;12.85;;;7.35;;
28170;SDS011;15458;53.346;-1.688;2023-07-13T04:15:32;11.73;;;6.75;;
28170;SDS011;15458;53.346;-1.688;2023-07-13T04:17:58;14.98;;;7.88;;
28170;SDS011;15458;53.346;-1.688;2023-07-13T04:20:26;13.45;;;8.15;;
28170;SDS011;15458;53.346;-1.688;2023-07-13T04:22:52;10.95;;;5.28;;
28170;SDS011;15458;53.346;-1.688;2023-07-13T04:25:21;14.25;;;7.63;;
28170;SDS011;15458;53.346;-1.688;2023-07-13T04:27:46;16.77;;;10.05;;
28170;SDS011;15458;53.346;-1.688;2023-07-13T04:30:12;19.40;;;11.65;;
28170;SDS011;15458;53.346;-1.688;2023-07-13T04:32:38;20.70;;;9.63;;
28170;SDS011;15458;53.346;-1.688;2023-07-13T04:35:04;15.32;;;7.93;;
28170;SDS011;15458;53.346;-1.688;2023-07-13T04:37:30;16.48;;;6.72;;
28170;SDS011;15458;53.346;-1.688;2023-07-13T04:39:55;12.27;;;6.15;;
28170;SDS011;15458;53.346;-1.688;2023-07-13T04:42:22;15.82;;;5.70;;
28170;SDS011;15458;53.346;-1.688;2023-07-13T04:44:48;13.48;;;7.07;;
28170;SDS011;15458;53.346;-1.688;2023-07-13T04:47:14;18.67;;;7.35;;
28170;SDS011;15458;53.346;-1.688;2023-07-13T04:49:40;11.00;;;6.75;;
28170;SDS011;15458;53.346;-1.688;2023-07-13T04:52:06;18.02;;;6.80;;
28170;SDS011;15458;53.346;-1.688;2023-07-13T04:54:32;11.98;;;7.18;;
28170;SDS011;15458;53.346;-1.688;2023-07-13T04:56:59;17.95;;;9.40;;
28170;SDS011;15458;53.346;-1.688;2023-07-13T04:59:24;14.23;;;8.00;;
28170;SDS011;15458;53.346;-1.688;2023-07-13T05:01:50;10.30;;;7.60;;
28170;SDS011;15458;53.346;-1.688;2023-07-13T05:04:16;15.82;;;9.88;;
28170;SDS011;15458;53.346;-1.688;2023-07-13T05:06:42;14.13;;;9.43;;
28170;SDS011;15458;53.346;-1.688;2023-07-13T05:09:08;19.92;;;10.23;;
28170;SDS011;15458;53.346;-1.688;2023-07-13T05:11:33;10.57;;;6.85;;
28170;SDS011;15458;53.346;-1.688;2023-07-13T05:13:59;9.80;;;7.18;;
28170;SDS011;15458;53.346;-1.688;2023-07-13T05:16:26;15.00;;;7.20;;
28170;SDS011;15458;53.346;-1.688;2023-07-13T05:18:52;11.77;;;7.10;;
28170;SDS011;15458;53.346;-1.688;2023-07-13T05:21:18;20.08;;;9.57;;
28170;SDS011;15458;53.346;-1.688;2023-07-13T05:23:44;14.88;;;8.90;;
28170;SDS011;15458;53.346;-1.688;2023-07-13T05:26:10;10.43;;;7.97;;
28170;SDS011;15458;53.346;-1.688;2023-07-13T05:28:36;11.38;;;6.65;;
28170;SDS011;15458;53.346;-1.688;2023-07-13T05:31:03;9.68;;;6.95;;
28170;SDS011;15458;53.346;-1.688;2023-07-13T05:33:29;7.72;;;6.70;;
28170;SDS011;15458;53.346;-1.688;2023-07-13T05:35:55;15.02;;;7.22;;
28170;SDS011;15458;53.346;-1.688;2023-07-13T05:38:21;7.75;;;6.38;;
28170;SDS011;15458;53.346;-1.688;2023-07-13T05:40:47;9.90;;;6.55;;
28170;SDS011;15458;53.346;-1.688;2023-07-13T05:43:13;14.82;;;6.45;;
28170;SDS011;15458;53.346;-1.688;2023-07-13T05:45:40;7.80;;;5.13;;
28170;SDS011;15458;53.346;-1.688;2023-07-13T05:48:06;9.98;;;4.97;;
28170;SDS011;15458;53.346;-1.688;2023-07-13T05:50:31;7.63;;;5.10;;
28170;SDS011;15458;53.346;-1.688;2023-07-13T05:52:57;7.57;;;5.22;;
28170;SDS011;15458;53.346;-1.688;2023-07-13T05:55:23;5.82;;;4.80;;
28170;SDS011;15458;53.346;-1.688;2023-07-13T05:57:48;8.68;;;4.63;;
28170;SDS011;15458;53.346;-1.688;2023-07-13T06:00:14;4.72;;;4.22;;
28170;SDS011;15458;53.346;-1.688;2023-07-13T06:02:41;5.68;;;4.72;;
28170;SDS011;15458;53.346;-1.688;2023-07-13T06:05:07;6.93;;;4.40;;
28170;SDS011;15458;53.346;-1.688;2023-07-13T06:07:33;7.00;;;4.03;;
28170;SDS011;15458;53.346;-1.688;2023-07-13T06:09:58;4.95;;;3.75;;
28170;SDS011;15458;53.346;-1.688;2023-07-13T06:12:25;7.80;;;4.07;;
28170;SDS011;15458;53.346;-1.688;2023-07-13T06:14:51;6.03;;;4.00;;
28170;SDS011;15458;53.346;-1.688;2023-07-13T06:17:17;7.38;;;4.80;;
28170;SDS011;15458;53.346;-1.688;2023-07-13T06:19:43;6.40;;;4.25;;
28170;SDS011;15458;53.346;-1.688;2023-07-13T06:22:08;4.90;;;3.45;;
28170;SDS011;15458;53.346;-1.688;2023-07-13T06:24:34;9.20;;;4.90;;
28170;SDS011;15458;53.346;-1.688;2023-07-13T06:27:00;8.45;;;4.55;;
28170;SDS011;15458;53.346;-1.688;2023-07-13T06:29:28;3.83;;;3.40;;
28170;SDS011;15458;53.346;-1.688;2023-07-13T06:31:59;6.60;;;4.15;;
28170;SDS011;15458;53.346;-1.688;2023-07-13T06:34:26;4.57;;;3.63;;
28170;SDS011;15458;53.346;-1.688;2023-07-13T06:36:52;7.18;;;4.38;;
28170;SDS011;15458;53.346;-1.688;2023-07-13T06:39:17;10.02;;;4.22;;
28170;SDS011;15458;53.346;-1.688;2023-07-13T06:41:43;7.95;;;4.63;;
28170;SDS011;15458;53.346;-1.688;2023-07-13T06:44:09;4.15;;;3.55;;
28170;SDS011;15458;53.346;-1.688;2023-07-13T06:46:34;7.65;;;3.30;;
28170;SDS011;15458;53.346;-1.688;2023-07-13T06:49:00;8.35;;;3.30;;
28170;SDS011;15458;53.346;-1.688;2023-07-13T06:51:26;10.77;;;3.60;;
28170;SDS011;15458;53.346;-1.688;2023-07-13T06:53:51;7.75;;;3.72;;
28170;SDS011;15458;53.346;-1.688;2023-07-13T06:56:17;5.53;;;3.00;;
28170;SDS011;15458;53.346;-1.688;2023-07-13T06:58:43;5.47;;;3.22;;
28170;SDS011;15458;53.346;-1.688;2023-07-13T07:01:09;6.10;;;3.92;;
28170;SDS011;15458;53.346;-1.688;2023-07-13T07:03:35;6.03;;;3.53;;
28170;SDS011;15458;53.346;-1.688;2023-07-13T07:06:22;5.50;;;3.00;;
28170;SDS011;15458;53.346;-1.688;2023-07-13T07:08:50;7.95;;;3.47;;
28170;SDS011;15458;53.346;-1.688;2023-07-13T07:11:18;4.75;;;3.13;;
28170;SDS011;15458;53.346;-1.688;2023-07-13T07:13:48;9.43;;;3.42;;
28170;SDS011;15458;53.346;-1.688;2023-07-13T07:16:14;5.15;;;2.72;;
28170;SDS011;15458;53.346;-1.688;2023-07-13T07:18:40;3.58;;;2.85;;
28170;SDS011;15458;53.346;-1.688;2023-07-13T07:21:06;8.20;;;2.50;;
28170;SDS011;15458;53.346;-1.688;2023-07-13T07:23:31;5.65;;;2.30;;
28170;SDS011;15458;53.346;-1.688;2023-07-13T07:25:57;4.85;;;2.75;;
28170;SDS011;15458;53.346;-1.688;2023-07-13T07:28:23;4.30;;;2.72;;
28170;SDS011;15458;53.346;-1.688;2023-07-13T07:30:52;9.23;;;2.80;;
28170;SDS011;15458;53.346;-1.688;2023-07-13T07:33:18;5.95;;;1.98;;
28170;SDS011;15458;53.346;-1.688;2023-07-13T07:35:44;5.65;;;2.35;;
28170;SDS011;15458;53.346;-1.688;2023-07-13T07:38:10;5.47;;;2.20;;
28170;SDS011;15458;53.346;-1.688;2023-07-13T07:40:36;3.55;;;1.88;;
28170;SDS011;15458;53.346;-1.688;2023-07-13T07:43:03;5.85;;;2.17;;
28170;SDS011;15458;53.346;-1.688;2023-07-13T07:45:28;3.67;;;1.60;;
28170;SDS011;15458;53.346;-1.688;2023-07-13T07:47:54;6.18;;;1.80;;
28170;SDS011;15458;53.346;-1.688;2023-07-13T07:50:23;5.30;;;2.08;;
28170;SDS011;15458;53.346;-1.688;2023-07-13T07:52:50;5.65;;;1.73;;
28170;SDS011;15458;53.346;-1.688;2023-07-13T07:55:16;4.25;;;1.70;;
28170;SDS011;15458;53.346;-1.688;2023-07-13T07:57:42;5.40;;;2.00;;
28170;SDS011;15458;53.346;-1.688;2023-07-13T08:00:08;6.55;;;2.15;;
28170;SDS011;15458;53.346;-1.688;2023-07-13T08:02:34;5.72;;;1.88;;
28170;SDS011;15458;53.346;-1.688;2023-07-13T08:05:00;4.70;;;1.90;;
28170;SDS011;15458;53.346;-1.688;2023-07-13T08:07:26;2.78;;;1.65;;
28170;SDS011;15458;53.346;-1.688;2023-07-13T08:09:52;3.25;;;1.83;;
28170;SDS011;15458;53.346;-1.688;2023-07-13T08:12:18;4.13;;;1.90;;
28170;SDS011;15458;53.346;-1.688;2023-07-13T08:14:44;2.45;;;1.70;;
28170;SDS011;15458;53.346;-1.688;2023-07-13T08:17:14;1.90;;;1.23;;
28170;SDS011;15458;53.346;-1.688;2023-07-13T08:19:43;3.70;;;1.40;;
28170;SDS011;15458;53.346;-1.688;2023-07-13T08:22:10;4.75;;;2.03;;
28170;SDS011;15458;53.346;-1.688;2023-07-13T08:24:37;5.85;;;1.88;;
28170;SDS011;15458;53.346;-1.688;2023-07-13T08:27:06;2.30;;;1.40;;
28170;SDS011;15458;53.346;-1.688;2023-07-13T08:29:31;6.65;;;1.75;;
28170;SDS011;15458;53.346;-1.688;2023-07-13T08:31:58;6.00;;;1.88;;
28170;SDS011;15458;53.346;-1.688;2023-07-13T08:34:23;3.45;;;1.42;;
28170;SDS011;15458;53.346;-1.688;2023-07-13T08:36:49;5.68;;;1.33;;
28170;SDS011;15458;53.346;-1.688;2023-07-13T08:39:16;4.70;;;1.30;;
28170;SDS011;15458;53.346;-1.688;2023-07-13T08:41:44;4.05;;;1.50;;
28170;SDS011;15458;53.346;-1.688;2023-07-13T08:44:40;5.43;;;1.90;;
28170;SDS011;15458;53.346;-1.688;2023-07-13T08:47:22;4.93;;;1.67;;
28170;SDS011;15458;53.346;-1.688;2023-07-13T08:49:49;4.40;;;1.30;;
28170;SDS011;15458;53.346;-1.688;2023-07-13T08:52:32;2.38;;;1.40;;
28170;SDS011;15458;53.346;-1.688;2023-07-13T08:57:48;4.50;;;2.03;;
28170;SDS011;15458;53.346;-1.688;2023-07-13T09:00:19;5.10;;;1.45;;
28170;SDS011;15458;53.346;-1.688;2023-07-13T09:02:46;3.00;;;1.58;;
28170;SDS011;15458;53.346;-1.688;2023-07-13T09:14:06;6.03;;;1.55;;
28170;SDS011;15458;53.346;-1.688;2023-07-13T09:16:57;3.65;;;1.33;;
28170;SDS011;15458;53.346;-1.688;2023-07-13T09:19:26;5.68;;;1.88;;
28170;SDS011;15458;53.346;-1.688;2023-07-13T09:21:57;4.57;;;1.70;;
28170;SDS011;15458;53.346;-1.688;2023-07-13T09:27:19;2.45;;;1.50;;
28170;SDS011;15458;53.346;-1.688;2023-07-13T09:29:58;8.88;;;1.60;;
28170;SDS011;15458;53.346;-1.688;2023-07-13T09:32:36;2.47;;;1.60;;
28170;SDS011;15458;53.346;-1.688;2023-07-13T09:35:09;4.75;;;1.20;;
28170;SDS011;15458;53.346;-1.688;2023-07-13T09:37:37;3.97;;;1.45;;
28170;SDS011;15458;53.346;-1.688;2023-07-13T09:40:08;3.83;;;1.38;;
28170;SDS011;15458;53.346;-1.688;2023-07-13T09:42:51;4.60;;;1.88;;
28170;SDS011;15458;53.346;-1.688;2023-07-13T09:45:29;2.55;;;1.15;;
28170;SDS011;15458;53.346;-1.688;2023-07-13T09:47:59;5.40;;;1.40;;
28170;SDS011;15458;53.346;-1.688;2023-07-13T09:50:30;2.28;;;1.55;;
28170;SDS011;15458;53.346;-1.688;2023-07-13T09:52:55;2.28;;;1.55;;
28170;SDS011;15458;53.346;-1.688;2023-07-13T09:55:37;4.07;;;1.40;;
28170;SDS011;15458;53.346;-1.688;2023-07-13T09:58:05;2.00;;;1.38;;
28170;SDS011;15458;53.346;-1.688;2023-07-13T10:00:40;4.20;;;1.33;;
28170;SDS011;15458;53.346;-1.688;2023-07-13T10:06:20;4.47;;;1.63;;
28170;SDS011;15458;53.346;-1.688;2023-07-13T10:08:47;4.25;;;1.40;;
28170;SDS011;15458;53.346;-1.688;2023-07-13T10:11:18;2.85;;;1.50;;
28170;SDS011;15458;53.346;-1.688;2023-07-13T10:13:52;2.60;;;1.45;;
28170;SDS011;15458;53.346;-1.688;2023-07-13T10:16:22;2.33;;;1.40;;
28170;SDS011;15458;53.346;-1.688;2023-07-13T10:18:51;3.03;;;1.50;;
28170;SDS011;15458;53.346;-1.688;2023-07-13T10:21:22;5.30;;;1.55;;
28170;SDS011;15458;53.346;-1.688;2023-07-13T10:26:49;4.95;;;2.03;;
28170;SDS011;15458;53.346;-1.688;2023-07-13T10:29:27;4.40;;;1.65;;
28170;SDS011;15458;53.346;-1.688;2023-07-13T10:31:54;2.53;;;1.58;;
28170;SDS011;15458;53.346;-1.688;2023-07-13T10:34:22;3.33;;;1.67;;
28170;SDS011;15458;53.346;-1.688;2023-07-13T10:36:48;3.75;;;1.98;;
28170;SDS011;15458;53.346;-1.688;2023-07-13T10:39:20;2.35;;;1.20;;
28170;SDS011;15458;53.346;-1.688;2023-07-13T10:41:55;3.30;;;1.45;;
28170;SDS011;15458;53.346;-1.688;2023-07-13T10:44:30;3.72;;;1.30;;
28170;SDS011;15458;53.346;-1.688;2023-07-13T10:47:01;1.67;;;1.13;;
28170;SDS011;15458;53.346;-1.688;2023-07-13T10:49:31;4.80;;;1.58;;
28170;SDS011;15458;53.346;-1.688;2023-07-13T10:51:58;2.28;;;1.30;;
28170;SDS011;15458;53.346;-1.688;2023-07-13T10:54:31;3.78;;;1.40;;
28170;SDS011;15458;53.346;-1.688;2023-07-13T10:57:10;5.15;;;2.33;;
28170;SDS011;15458;53.346;-1.688;2023-07-13T10:59:39;2.58;;;1.52;;
28170;SDS011;15458;53.346;-1.688;2023-07-13T11:04:57;2.17;;;1.40;;
28170;SDS011;15458;53.346;-1.688;2023-07-13T11:07:30;4.32;;;1.85;;
28170;SDS011;15458;53.346;-1.688;2023-07-13T11:13:01;3.58;;;1.40;;
28170;SDS011;15458;53.346;-1.688;2023-07-13T11:15:28;6.32;;;1.65;;
28170;SDS011;15458;53.346;-1.688;2023-07-13T11:17:59;3.42;;;1.35;;
28170;SDS011;15458;53.346;-1.688;2023-07-13T11:25:42;2.80;;;1.42;;
28170;SDS011;15458;53.346;-1.688;2023-07-13T11:35:40;2.25;;;1.10;;
28170;SDS011;15458;53.346;-1.688;2023-07-13T11:38:23;5.53;;;1.08;;
28170;SDS011;15458;53.346;-1.688;2023-07-13T11:41:05;4.90;;;1.50;;
28170;SDS011;15458;53.346;-1.688;2023-07-13T11:43:38;3.42;;;1.15;;
28170;SDS011;15458;53.346;-1.688;2023-07-13T11:46:20;2.22;;;1.35;;
28170;SDS011;15458;53.346;-1.688;2023-07-13T11:48:51;4.57;;;1.10;;
28170;SDS011;15458;53.346;-1.688;2023-07-13T11:51:22;6.13;;;1.33;;
28170;SDS011;15458;53.346;-1.688;2023-07-13T11:53:56;3.75;;;1.20;;
28170;SDS011;15458;53.346;-1.688;2023-07-13T11:56:26;6.90;;;1.25;;
28170;SDS011;15458;53.346;-1.688;2023-07-13T11:58:53;4.63;;;1.40;;
28170;SDS011;15458;53.346;-1.688;2023-07-13T12:01:22;4.43;;;1.30;;
28170;SDS011;15458;53.346;-1.688;2023-07-13T12:03:50;4.90;;;1.73;;
28170;SDS011;15458;53.346;-1.688;2023-07-13T12:06:31;3.90;;;1.30;;
28170;SDS011;15458;53.346;-1.688;2023-07-13T12:09:02;2.17;;;1.20;;
28170;SDS011;15458;53.346;-1.688;2023-07-13T12:11:43;4.70;;;1.40;;
28170;SDS011;15458;53.346;-1.688;2023-07-13T12:14:15;6.10;;;1.45;;
28170;SDS011;15458;53.346;-1.688;2023-07-13T12:16:42;6.00;;;1.42;;
28170;SDS011;15458;53.346;-1.688;2023-07-13T12:19:21;4.03;;;1.42;;
28170;SDS011;15458;53.346;-1.688;2023-07-13T12:21:50;2.47;;;1.02;;
28170;SDS011;15458;53.346;-1.688;2023-07-13T12:24:21;4.80;;;1.40;;
28170;SDS011;15458;53.346;-1.688;2023-07-13T12:27:06;2.27;;;1.10;;
28170;SDS011;15458;53.346;-1.688;2023-07-13T12:29:58;4.43;;;1.45;;
28170;SDS011;15458;53.346;-1.688;2023-07-13T12:32:26;6.00;;;1.30;;
28170;SDS011;15458;53.346;-1.688;2023-07-13T12:34:53;4.13;;;1.30;;
28170;SDS011;15458;53.346;-1.688;2023-07-13T12:37:26;4.43;;;1.55;;
28170;SDS011;15458;53.346;-1.688;2023-07-13T12:39:53;4.95;;;1.60;;
28170;SDS011;15458;53.346;-1.688;2023-07-13T12:42:28;3.20;;;1.52;;
28170;SDS011;15458;53.346;-1.688;2023-07-13T12:44:58;4.00;;;1.30;;
28170;SDS011;15458;53.346;-1.688;2023-07-13T12:47:44;3.90;;;1.38;;
28170;SDS011;15458;53.346;-1.688;2023-07-13T12:50:14;8.77;;;1.75;;
28170;SDS011;15458;53.346;-1.688;2023-07-13T12:52:50;6.00;;;1.30;;
28170;SDS011;15458;53.346;-1.688;2023-07-13T12:55:18;2.50;;;1.35;;
28170;SDS011;15458;53.346;-1.688;2023-07-13T12:57:55;1.70;;;1.20;;
28170;SDS011;15458;53.346;-1.688;2023-07-13T13:00:35;2.10;;;1.10;;
28170;SDS011;15458;53.346;-1.688;2023-07-13T13:06:17;4.03;;;1.40;;
28170;SDS011;15458;53.346;-1.688;2023-07-13T13:08:46;2.97;;;1.23;;
28170;SDS011;15458;53.346;-1.688;2023-07-13T13:11:14;2.58;;;1.40;;
28170;SDS011;15458;53.346;-1.688;2023-07-13T13:13:43;2.75;;;1.20;;
28170;SDS011;15458;53.346;-1.688;2023-07-13T13:18:50;4.05;;;1.35;;
28170;SDS011;15458;53.346;-1.688;2023-07-13T13:21:17;4.68;;;1.33;;
28170;SDS011;15458;53.346;-1.688;2023-07-13T13:23:44;5.30;;;1.20;;
28170;SDS011;15458;53.346;-1.688;2023-07-13T13:26:11;4.07;;;1.58;;
28170;SDS011;15458;53.346;-1.688;2023-07-13T13:31:08;2.38;;;1.02;;
28170;SDS011;15458;53.346;-1.688;2023-07-13T13:33:37;5.97;;;1.60;;
28170;SDS011;15458;53.346;-1.688;2023-07-13T13:36:12;1.88;;;1.00;;
28170;SDS011;15458;53.346;-1.688;2023-07-13T13:38:44;3.25;;;1.20;;
28170;SDS011;15458;53.346;-1.688;2023-07-13T13:41:10;3.20;;;1.08;;
28170;SDS011;15458;53.346;-1.688;2023-07-13T13:43:38;3.03;;;1.13;;
28170;SDS011;15458;53.346;-1.688;2023-07-13T13:46:38;5.13;;;1.02;;
28170;SDS011;15458;53.346;-1.688;2023-07-13T13:48:56;1.85;;;1.15;;
28170;SDS011;15458;53.346;-1.688;2023-07-13T13:54:14;2.55;;;1.30;;
28170;SDS011;15458;53.346;-1.688;2023-07-13T13:56:41;7.20;;;1.45;;
28170;SDS011;15458;53.346;-1.688;2023-07-13T13:59:08;3.10;;;1.38;;
28170;SDS011;15458;53.346;-1.688;2023-07-13T14:01:34;2.80;;;1.40;;
28170;SDS011;15458;53.346;-1.688;2023-07-13T14:04:00;2.08;;;1.20;;
28170;SDS011;15458;53.346;-1.688;2023-07-13T14:06:26;4.90;;;1.27;;
28170;SDS011;15458;53.346;-1.688;2023-07-13T14:08:53;5.03;;;1.35;;
28170;SDS011;15458;53.346;-1.688;2023-07-13T14:11:21;3.75;;;1.35;;
28170;SDS011;15458;53.346;-1.688;2023-07-13T14:13:48;2.03;;;1.30;;
28170;SDS011;15458;53.346;-1.688;2023-07-13T14:16:16;2.55;;;1.30;;
28170;SDS011;15458;53.346;-1.688;2023-07-13T14:18:44;4.63;;;1.27;;
28170;SDS011;15458;53.346;-1.688;2023-07-13T14:21:13;2.83;;;1.50;;
28170;SDS011;15458;53.346;-1.688;2023-07-13T14:23:47;4.32;;;1.63;;
28170;SDS011;15458;53.346;-1.688;2023-07-13T14:26:18;3.28;;;1.63;;
28170;SDS011;15458;53.346;-1.688;2023-07-13T14:28:50;4.38;;;1.40;;
28170;SDS011;15458;53.346;-1.688;2023-07-13T14:31:20;2.42;;;1.02;;
28170;SDS011;15458;53.346;-1.688;2023-07-13T14:33:47;2.85;;;1.60;;
28170;SDS011;15458;53.346;-1.688;2023-07-13T14:38:56;3.45;;;1.70;;
28170;SDS011;15458;53.346;-1.688;2023-07-13T14:41:23;2.10;;;1.50;;
28170;SDS011;15458;53.346;-1.688;2023-07-13T14:43:49;3.80;;;1.42;;
28170;SDS011;15458;53.346;-1.688;2023-07-13T14:46:21;4.25;;;1.50;;
28170;SDS011;15458;53.346;-1.688;2023-07-13T14:48:54;1.88;;;1.15;;
28170;SDS011;15458;53.346;-1.688;2023-07-13T14:51:27;5.10;;;1.40;;
28170;SDS011;15458;53.346;-1.688;2023-07-13T14:54:03;4.38;;;1.50;;
28170;SDS011;15458;53.346;-1.688;2023-07-13T14:56:30;1.98;;;1.40;;
28170;SDS011;15458;53.346;-1.688;2023-07-13T14:58:57;6.28;;;1.55;;
28170;SDS011;15458;53.346;-1.688;2023-07-13T15:01:25;3.33;;;1.60;;
28170;SDS011;15458;53.346;-1.688;2023-07-13T15:03:52;4.07;;;1.55;;
28170;SDS011;15458;53.346;-1.688;2023-07-13T15:06:18;3.22;;;1.75;;
28170;SDS011;15458;53.346;-1.688;2023-07-13T15:08:45;4.30;;;1.60;;
28170;SDS011;15458;53.346;-1.688;2023-07-13T15:11:11;2.75;;;1.42;;
28170;SDS011;15458;53.346;-1.688;2023-07-13T15:13:38;3.60;;;1.75;;
28170;SDS011;15458;53.346;-1.688;2023-07-13T15:16:05;5.07;;;1.50;;
28170;SDS011;15458;53.346;-1.688;2023-07-13T15:18:47;3.63;;;1.25;;
28170;SDS011;15458;53.346;-1.688;2023-07-13T15:21:14;4.28;;;1.50;;
28170;SDS011;15458;53.346;-1.688;2023-07-13T15:23:45;4.00;;;1.60;;
28170;SDS011;15458;53.346;-1.688;2023-07-13T15:26:14;2.35;;;1.38;;
28170;SDS011;15458;53.346;-1.688;2023-07-13T15:28:44;2.08;;;1.60;;
28170;SDS011;15458;53.346;-1.688;2023-07-13T15:31:32;3.63;;;1.40;;
28170;SDS011;15458;53.346;-1.688;2023-07-13T15:34:03;3.75;;;1.23;;
28170;SDS011;15458;53.346;-1.688;2023-07-13T15:36:35;2.17;;;1.30;;
28170;SDS011;15458;53.346;-1.688;2023-07-13T15:39:01;5.10;;;1.10;;